createdAt,value
2018-07-23T00:00:17.463Z,98473.86
2018-07-23T00:02:44.743Z,98477.00
2018-07-23T00:05:11.986Z,98478.47
2018-07-23T00:07:39.210Z,98479.50
2018-07-23T00:10:06.716Z,98483.63
2018-07-23T00:12:33.941Z,98480.72
2018-07-23T00:15:01.185Z,98483.94
2018-07-23T00:20:18.627Z,98484.80
2018-07-23T00:22:45.910Z,98481.66
2018-07-23T00:25:13.180Z,98479.19
2018-07-23T00:27:40.472Z,98479.95
2018-07-23T00:30:07.769Z,98481.89
2018-07-23T00:32:35.216Z,98482.92
2018-07-23T00:35:02.454Z,98484.80
2018-07-23T00:37:29.725Z,98492.39
2018-07-23T00:39:56.962Z,98485.80
2018-07-23T00:42:24.216Z,98484.94
2018-07-23T00:44:51.435Z,98484.47
2018-07-23T00:47:18.705Z,98484.73
2018-07-23T00:49:45.954Z,98486.28
2018-07-23T00:52:13.239Z,98490.21
2018-07-23T00:54:40.452Z,98487.08
2018-07-23T00:57:07.706Z,98491.37
2018-07-23T00:59:34.967Z,98488.55
2018-07-23T01:02:02.918Z,98493.72
2018-07-23T01:04:30.425Z,98485.96
2018-07-23T01:06:58.679Z,98489.81
2018-07-23T01:09:25.918Z,98485.66
2018-07-23T01:11:53.198Z,98491.73
2018-07-23T01:14:20.446Z,98494.26
2018-07-23T01:16:47.906Z,98494.12
2018-07-23T01:19:16.051Z,98490.81
2018-07-23T01:21:43.339Z,98490.77
2018-07-23T01:24:11.531Z,98496.38
2018-07-23T01:26:39.252Z,98492.48
2018-07-23T01:29:06.940Z,98498.65
2018-07-23T01:31:34.291Z,98495.13
2018-07-23T01:34:01.601Z,98498.73
2018-07-23T01:36:28.929Z,98499.65
2018-07-23T01:38:56.861Z,98507.57
2018-07-23T01:41:24.213Z,98502.16
2018-07-23T01:43:51.563Z,98504.27
2018-07-23T01:46:19.552Z,98501.22
2018-07-23T01:48:46.921Z,98504.66
2018-07-23T01:51:14.292Z,98501.13
2018-07-23T01:53:42.074Z,98508.34
2018-07-23T01:56:09.685Z,98510.53
2018-07-23T01:58:36.975Z,98510.14
2018-07-23T02:01:09.798Z,98510.14
2018-07-23T02:03:37.876Z,98507.87
2018-07-23T02:06:05.245Z,98511.47
2018-07-23T02:08:32.618Z,98512.03
2018-07-23T02:11:00.026Z,98509.38
2018-07-23T02:13:28.406Z,98511.70
2018-07-23T02:15:55.699Z,98514.27
2018-07-23T02:18:22.987Z,98508.05
2018-07-23T02:20:50.215Z,98513.74
2018-07-23T02:23:17.455Z,98513.66
2018-07-23T02:25:44.694Z,98512.89
2018-07-23T02:28:12.009Z,98512.89
2018-07-23T02:30:39.265Z,98514.69
2018-07-23T02:33:06.544Z,98514.27
2018-07-23T02:35:34.012Z,98526.88
2018-07-23T02:38:02.501Z,98509.79
2018-07-23T02:40:29.984Z,98515.75
2018-07-23T02:42:57.230Z,98518.24
2018-07-23T02:45:24.501Z,98517.64
2018-07-23T02:47:51.780Z,98519.49
2018-07-23T02:50:19.021Z,98518.11
2018-07-23T02:52:46.285Z,98521.55
2018-07-23T02:55:13.726Z,98519.02
2018-07-23T02:57:41.050Z,98511.77
2018-07-23T03:00:08.332Z,98515.67
2018-07-23T03:02:35.603Z,98519.74
2018-07-23T03:05:02.961Z,98513.63
2018-07-23T03:07:30.248Z,98519.48
2018-07-23T03:09:57.526Z,98524.33
2018-07-23T03:12:24.853Z,98529.34
2018-07-23T03:14:52.134Z,98529.08
2018-07-23T03:17:19.438Z,98530.83
2018-07-23T03:19:48.532Z,98533.88
2018-07-23T03:22:16.789Z,98528.64
2018-07-23T03:24:45.382Z,98529.98
2018-07-23T03:27:13.492Z,98537.13
2018-07-23T03:29:41.157Z,98539.64
2018-07-23T03:32:09.263Z,98540.33
2018-07-23T03:34:36.610Z,98543.66
2018-07-23T03:37:04.067Z,98544.52
2018-07-23T03:39:31.398Z,98546.56
2018-07-23T03:41:58.791Z,98552.47
2018-07-23T03:44:26.141Z,98552.37
2018-07-23T03:46:53.527Z,98557.45
2018-07-23T03:49:20.922Z,98566.55
2018-07-23T03:51:48.327Z,98566.44
2018-07-23T03:54:16.717Z,98565.39
2018-07-23T03:56:44.048Z,98573.20
2018-07-23T03:59:11.378Z,98571.80
2018-07-23T04:01:38.669Z,98569.36
2018-07-23T04:04:06.381Z,98548.91
2018-07-23T04:06:33.711Z,98566.58
2018-07-23T04:09:01.012Z,98567.44
2018-07-23T04:11:28.420Z,98569.03
2018-07-23T04:13:55.742Z,98568.56
2018-07-23T04:16:24.022Z,98571.61
2018-07-23T04:18:52.038Z,98576.83
2018-07-23T04:21:19.350Z,98577.77
2018-07-23T04:23:46.736Z,98582.69
2018-07-23T04:26:14.060Z,98578.63
2018-07-23T04:28:41.413Z,98574.65
2018-07-23T04:31:08.746Z,98578.14
2018-07-23T04:33:36.396Z,98581.80
2018-07-23T04:36:04.117Z,98586.83
2018-07-23T04:38:31.600Z,98580.12
2018-07-23T04:40:58.912Z,98573.27
2018-07-23T04:43:28.327Z,98582.36
2018-07-23T04:45:56.089Z,98582.67
2018-07-23T04:48:24.073Z,98580.27
2018-07-23T04:50:51.487Z,98583.25
2018-07-23T04:53:18.856Z,98577.92
2018-07-23T04:55:46.150Z,98579.41
2018-07-23T04:58:13.499Z,98584.55
2018-07-23T05:00:40.862Z,98587.34
2018-07-23T05:03:08.281Z,98587.86
2018-07-23T05:05:35.697Z,98588.09
2018-07-23T05:08:03.059Z,98590.56
2018-07-23T05:10:30.433Z,98590.30
2018-07-23T05:12:57.773Z,98591.28
2018-07-23T05:15:25.202Z,98595.77
2018-07-23T05:17:52.554Z,98594.50
2018-07-23T05:20:20.590Z,98596.41
2018-07-23T05:22:48.158Z,98601.02
2018-07-23T05:25:15.639Z,98599.86
2018-07-23T05:27:43.021Z,98599.63
2018-07-23T05:30:10.414Z,98600.36
2018-07-23T05:32:37.749Z,98601.53
2018-07-23T05:35:05.482Z,98601.08
2018-07-23T05:37:32.918Z,98602.31
2018-07-23T05:40:00.299Z,98607.27
2018-07-23T05:42:28.300Z,98606.78
2018-07-23T05:45:07.671Z,98610.09
2018-07-23T05:47:34.984Z,98606.44
2018-07-23T05:50:02.352Z,98605.67
2018-07-23T05:52:29.690Z,98603.41
2018-07-23T05:54:57.044Z,98602.05
2018-07-23T05:57:24.890Z,98606.70
2018-07-23T05:59:52.295Z,98602.48
2018-07-23T06:02:19.648Z,98597.14
2018-07-23T06:04:47.054Z,98603.73
2018-07-23T06:07:14.389Z,98603.14
2018-07-23T06:09:42.649Z,98604.28
2018-07-23T06:12:10.658Z,98605.30
2018-07-23T06:14:37.949Z,98601.97
2018-07-23T06:17:05.584Z,98608.05
2018-07-23T06:19:32.968Z,98596.06
2018-07-23T06:22:00.263Z,98605.37
2018-07-23T06:24:27.606Z,98606.36
2018-07-23T06:26:54.905Z,98605.38
2018-07-23T06:29:22.297Z,98604.12
2018-07-23T06:31:49.616Z,98607.42
2018-07-23T06:34:17.006Z,98614.25
2018-07-23T06:36:44.747Z,98609.84
2018-07-23T06:39:12.123Z,98613.58
2018-07-23T06:41:40.216Z,98612.53
2018-07-23T06:44:15.879Z,98615.97
2018-07-23T06:46:43.280Z,98614.14
2018-07-23T06:49:10.639Z,98615.37
2018-07-23T06:51:38.351Z,98610.45
2018-07-23T06:54:05.876Z,98608.27
2018-07-23T06:56:33.987Z,98610.30
2018-07-23T06:59:01.301Z,98606.76
2018-07-23T07:01:28.603Z,98604.36
2018-07-23T07:03:55.941Z,98607.23
2018-07-23T07:06:23.994Z,98605.13
2018-07-23T07:08:51.297Z,98598.62
2018-07-23T07:11:19.086Z,98607.03
2018-07-23T07:13:47.089Z,98604.18
2018-07-23T07:16:14.451Z,98606.16
2018-07-23T07:18:41.779Z,98599.00
2018-07-23T07:21:22.319Z,98607.44
2018-07-23T07:24:01.656Z,98602.65
2018-07-23T07:26:42.744Z,98603.39
2018-07-23T07:29:24.317Z,98601.69
2018-07-23T07:32:04.873Z,98597.46
2018-07-23T07:34:43.260Z,98605.45
2018-07-23T07:37:10.756Z,98606.84
2018-07-23T07:39:38.090Z,98606.80
2018-07-23T07:42:05.530Z,98601.52
2018-07-23T07:44:32.831Z,98608.73
2018-07-23T07:47:00.242Z,98610.62
2018-07-23T07:49:28.330Z,98606.16
2018-07-23T07:51:55.753Z,98602.00
2018-07-23T07:54:23.886Z,98607.13
2018-07-23T07:56:51.353Z,98602.08
2018-07-23T07:59:18.728Z,98600.98
2018-07-23T08:01:46.133Z,98602.73
2018-07-23T08:04:13.833Z,98606.28
2018-07-23T08:06:41.141Z,98595.77
2018-07-23T08:09:09.023Z,98598.77
2018-07-23T08:11:36.670Z,98602.69
2018-07-23T08:14:03.985Z,98601.24
2018-07-23T08:16:31.497Z,98599.84
2018-07-23T08:18:59.007Z,98597.67
2018-07-23T08:21:26.355Z,98600.83
2018-07-23T08:23:53.698Z,98602.19
2018-07-23T08:26:23.304Z,98612.38
2018-07-23T08:28:50.637Z,98611.78
2018-07-23T08:31:19.262Z,98602.13
2018-07-23T08:33:46.789Z,98601.73
2018-07-23T08:36:14.143Z,98602.32
2018-07-23T08:38:41.522Z,98600.66
2018-07-23T08:41:08.960Z,98594.44
2018-07-23T08:43:36.294Z,98603.22
2018-07-23T08:46:04.709Z,98594.93
2018-07-23T08:48:32.139Z,98598.68
2018-07-23T08:51:01.049Z,98605.09
2018-07-23T08:53:34.245Z,98597.73
2018-07-23T08:56:01.960Z,98601.20
2018-07-23T08:58:30.162Z,98605.27
2018-07-23T09:00:58.072Z,98600.33
2018-07-23T09:03:27.167Z,98599.86
2018-07-23T09:05:55.288Z,98599.02
2018-07-23T09:08:42.243Z,98592.77
2018-07-23T09:11:11.230Z,98597.77
2018-07-23T09:13:39.376Z,98591.95
2018-07-23T09:16:07.995Z,98588.52
2018-07-23T09:18:37.132Z,98589.92
2018-07-23T09:21:06.013Z,98588.75
2018-07-23T09:23:37.755Z,98591.80
2018-07-23T09:26:06.495Z,98599.11
2018-07-23T09:28:35.235Z,98592.05
2018-07-23T09:31:03.604Z,98586.64
2018-07-23T09:33:31.989Z,98585.87
2018-07-23T09:36:00.476Z,98585.86
2018-07-23T09:38:31.187Z,98578.89
2018-07-23T09:40:58.883Z,98582.95
2018-07-23T09:43:29.105Z,98588.59
2018-07-23T09:45:57.062Z,98578.56
2018-07-23T09:48:26.241Z,98583.37
2018-07-23T09:50:58.033Z,98584.64
2018-07-23T09:53:27.607Z,98578.84
2018-07-23T09:55:56.143Z,98577.92
2018-07-23T09:58:25.230Z,98575.23
2018-07-23T10:01:02.635Z,98575.92
2018-07-23T10:03:32.227Z,98573.41
2018-07-23T10:06:01.710Z,98573.54
2018-07-23T10:08:29.757Z,98572.50
2018-07-23T10:10:58.330Z,98566.22
2018-07-23T10:13:27.641Z,98571.33
2018-07-23T10:15:57.204Z,98570.13
2018-07-23T10:18:25.440Z,98565.92
2018-07-23T10:20:53.161Z,98567.75
2018-07-23T10:23:23.211Z,98561.67
2018-07-23T10:25:54.383Z,98556.22
2018-07-23T10:28:25.471Z,98554.41
2018-07-23T10:30:56.764Z,98561.34
2018-07-23T10:33:25.058Z,98558.34
2018-07-23T10:35:54.210Z,98552.52
2018-07-23T10:38:21.969Z,98556.40
2018-07-23T10:41:00.636Z,98550.70
2018-07-23T10:43:29.150Z,98553.56
2018-07-23T10:46:08.446Z,98552.84
2018-07-23T10:48:49.433Z,98548.86
2018-07-23T10:51:29.821Z,98541.55
2018-07-23T10:54:10.320Z,98542.64
2018-07-23T10:56:50.799Z,98545.73
2018-07-23T10:59:32.686Z,98542.66
2018-07-23T11:02:13.809Z,98545.80
2018-07-23T11:04:41.165Z,98540.83
2018-07-23T11:07:08.551Z,98543.95
2018-07-23T11:09:36.891Z,98543.89
2018-07-23T11:12:04.279Z,98540.63
2018-07-23T11:14:31.745Z,98543.02
2018-07-23T11:16:59.182Z,98539.84
2018-07-23T11:19:26.625Z,98540.95
2018-07-23T11:21:54.006Z,98531.57
2018-07-23T11:24:28.068Z,98539.50
2018-07-23T11:26:55.590Z,98537.73
2018-07-23T11:29:22.965Z,98540.95
2018-07-23T11:31:50.403Z,98542.86
2018-07-23T11:34:17.771Z,98543.19
2018-07-23T11:36:45.146Z,98538.73
2018-07-23T11:39:12.552Z,98542.92
2018-07-23T11:41:44.207Z,98530.27
2018-07-23T11:44:13.645Z,98540.93
2018-07-23T11:46:41.145Z,98533.90
2018-07-23T11:49:08.459Z,98547.31
2018-07-23T12:06:01.357Z,98531.75
2018-07-23T12:08:28.722Z,98527.25
2018-07-23T12:10:57.880Z,98520.43
2018-07-23T12:13:26.038Z,98516.91
2018-07-23T12:15:53.436Z,98515.37
2018-07-23T12:18:21.434Z,98511.05
2018-07-23T12:20:49.755Z,98507.73
2018-07-23T12:23:17.139Z,98503.16
2018-07-23T12:25:44.552Z,98507.95
2018-07-23T12:28:11.982Z,98504.09
2018-07-23T12:30:39.583Z,98494.33
2018-07-23T12:33:08.849Z,98498.82
2018-07-23T12:35:37.564Z,98501.23
2018-07-23T12:38:05.026Z,98495.78
2018-07-23T12:40:33.119Z,98495.48
2018-07-23T12:43:00.599Z,98486.73
2018-07-23T12:45:28.387Z,98483.87
2018-07-23T12:47:55.731Z,98490.20
2018-07-23T12:50:23.191Z,98495.40
2018-07-23T12:52:50.547Z,98495.78
2018-07-23T12:55:17.889Z,98495.63
2018-07-23T12:57:45.447Z,98493.07
2018-07-23T13:00:12.860Z,98491.20
2018-07-23T13:02:40.183Z,98495.09
2018-07-23T13:05:07.570Z,98488.20
2018-07-23T13:07:35.266Z,98489.11
2018-07-23T13:10:02.765Z,98484.55
2018-07-23T13:12:30.269Z,98477.63
2018-07-23T13:14:58.157Z,98473.73
2018-07-23T13:17:25.439Z,98478.41
2018-07-23T13:19:52.846Z,98484.94
2018-07-23T13:22:20.198Z,98484.06
2018-07-23T13:24:47.690Z,98482.70
2018-07-23T13:27:15.007Z,98482.03
2018-07-23T13:29:42.514Z,98474.86
2018-07-23T13:32:10.098Z,98471.91
2018-07-23T13:34:37.500Z,98475.20
2018-07-23T13:37:05.019Z,98472.17
2018-07-23T13:39:32.441Z,98476.73
2018-07-23T13:41:59.753Z,98475.67
2018-07-23T13:44:27.094Z,98472.98
2018-07-23T13:46:54.716Z,98473.39
2018-07-23T13:49:22.526Z,98456.35
2018-07-23T13:51:50.052Z,98451.27
2018-07-23T13:54:17.518Z,98464.30
2018-07-23T13:56:44.915Z,98456.52
2018-07-23T13:59:12.343Z,98457.73
2018-07-23T14:01:40.313Z,98453.23
2018-07-23T14:04:08.615Z,98456.69
2018-07-23T14:06:36.019Z,98456.86
2018-07-23T14:09:05.614Z,98456.05
2018-07-23T14:11:32.998Z,98459.66
2018-07-23T14:14:00.452Z,98454.44
2018-07-23T14:16:27.863Z,98451.78
2018-07-23T14:18:55.318Z,98451.67
2018-07-23T14:21:23.423Z,98451.19
2018-07-23T14:23:51.676Z,98448.73
2018-07-23T14:26:19.109Z,98445.88
2018-07-23T14:28:46.469Z,98448.86
2018-07-23T14:31:14.081Z,98444.41
2018-07-23T14:33:45.258Z,98442.45
2018-07-23T14:36:14.271Z,98445.91
2018-07-23T14:38:42.196Z,98433.45
2018-07-23T14:41:10.556Z,98433.39
2018-07-23T14:43:38.290Z,98435.63
2018-07-23T14:46:05.954Z,98424.43
2018-07-23T14:48:33.400Z,98435.81
2018-07-23T14:51:00.849Z,98427.16
2018-07-23T14:53:29.430Z,98429.49
2018-07-23T14:55:57.273Z,98423.27
2018-07-23T14:58:25.304Z,98432.70
2018-07-23T15:00:53.487Z,98423.01
2018-07-23T15:03:20.871Z,98430.30
2018-07-23T15:05:48.334Z,98420.23
2018-07-23T15:08:15.970Z,98422.52
2018-07-23T15:10:44.881Z,98422.11
2018-07-23T15:13:12.255Z,98422.75
2018-07-23T15:15:40.178Z,98424.48
2018-07-23T15:18:07.887Z,98417.42
2018-07-23T15:20:35.246Z,98411.77
2018-07-23T15:23:02.837Z,98411.77
2018-07-23T15:25:36.682Z,98413.15
2018-07-23T15:28:04.352Z,98416.02
2018-07-23T15:30:33.684Z,98416.78
2018-07-23T15:33:03.096Z,98427.29
2018-07-23T15:35:30.566Z,98415.66
2018-07-23T15:37:57.987Z,98417.47
2018-07-23T15:40:25.955Z,98411.03
2018-07-23T15:42:53.405Z,98414.80
2018-07-23T15:45:20.875Z,98412.44
2018-07-23T15:47:48.776Z,98403.88
2018-07-23T15:50:16.782Z,98415.83
2018-07-23T15:52:45.431Z,98410.17
2018-07-23T15:55:12.940Z,98410.21
2018-07-23T15:57:40.176Z,98409.46
2018-07-23T16:00:07.644Z,98410.48
2018-07-23T16:02:35.324Z,98409.89
2018-07-23T16:05:03.562Z,98412.05
2018-07-23T16:07:31.382Z,98407.00
2018-07-23T16:09:59.337Z,98401.77
2018-07-23T16:12:26.705Z,98401.88
2018-07-23T16:14:54.704Z,98411.36
2018-07-23T16:17:22.084Z,98407.30
2018-07-23T16:19:49.438Z,98406.11
2018-07-23T16:22:16.810Z,98408.99
2018-07-23T16:24:44.178Z,98405.22
2018-07-23T16:27:12.564Z,98410.42
2018-07-23T16:29:39.903Z,98411.28
2018-07-23T16:32:07.332Z,98408.49
2018-07-23T16:34:34.730Z,98407.87
2018-07-23T16:37:02.074Z,98405.46
2018-07-23T16:39:29.424Z,98405.45
2018-07-23T16:41:56.790Z,98411.80
2018-07-23T16:44:24.306Z,98408.70
2018-07-23T16:46:51.767Z,98408.94
2018-07-23T16:49:19.087Z,98412.94
2018-07-23T16:51:47.214Z,98405.90
2018-07-23T16:54:15.063Z,98412.24
2018-07-23T16:56:42.435Z,98406.74
2018-07-23T16:59:09.745Z,98409.64
2018-07-23T17:01:37.204Z,98403.16
2018-07-23T17:04:05.369Z,98403.78
2018-07-23T17:06:32.825Z,98407.23
2018-07-23T17:09:00.164Z,98400.91
2018-07-23T17:11:27.580Z,98402.41
2018-07-23T17:13:54.900Z,98408.48
2018-07-23T17:16:22.670Z,98413.73
2018-07-23T17:19:02.853Z,98412.83
2018-07-23T17:21:30.319Z,98409.14
2018-07-23T17:23:57.881Z,98421.49
2018-07-23T17:26:26.066Z,98415.80
2018-07-23T17:28:55.082Z,98413.53
2018-07-23T17:31:28.906Z,98417.14
2018-07-23T17:33:56.621Z,98431.63
2018-07-23T17:36:35.195Z,98429.17
2018-07-23T17:39:13.542Z,98431.67
2018-07-23T17:41:45.127Z,98435.00
2018-07-23T17:44:18.000Z,98438.83
2018-07-23T17:46:46.486Z,98436.86
2018-07-23T17:49:19.636Z,98440.13
2018-07-23T17:52:01.967Z,98441.64
2018-07-23T17:54:33.901Z,98442.98
2018-07-23T17:57:02.607Z,98446.33
2018-07-23T17:59:33.830Z,98438.25
2018-07-23T18:02:10.927Z,98444.42
2018-07-23T18:04:40.617Z,98445.94
2018-07-23T18:07:16.532Z,98450.05
2018-07-23T18:09:52.659Z,98444.31
2018-07-23T18:12:25.596Z,98446.93
2018-07-23T18:14:59.270Z,98450.07
2018-07-23T18:17:27.349Z,98453.94
2018-07-23T18:19:57.868Z,98452.44
2018-07-23T18:22:27.246Z,98452.70
2018-07-23T18:24:55.522Z,98451.93
2018-07-23T18:27:26.438Z,98454.82
2018-07-23T18:30:02.852Z,98455.66
2018-07-23T18:32:31.777Z,98462.59
2018-07-23T18:35:00.700Z,98469.02
2018-07-23T18:37:31.758Z,98470.34
2018-07-23T18:40:05.756Z,98474.53
2018-07-23T18:42:38.066Z,98474.35
2018-07-23T18:45:07.719Z,98470.13
2018-07-23T18:47:39.880Z,98475.20
2018-07-23T18:50:13.556Z,98474.69
2018-07-23T18:52:43.146Z,98475.84
2018-07-23T18:55:12.725Z,98475.77
2018-07-23T18:57:41.778Z,98484.64
2018-07-23T19:00:10.212Z,98486.64
2018-07-23T19:02:39.501Z,98485.00
2018-07-23T19:05:09.720Z,98496.52
2018-07-23T19:07:39.143Z,98498.42
2018-07-23T19:10:10.695Z,98498.70
2018-07-23T19:12:39.182Z,98501.53
2018-07-23T19:15:13.865Z,98508.66
2018-07-23T19:17:43.479Z,98501.81
2018-07-23T19:20:11.018Z,98511.72
2018-07-23T19:22:38.427Z,98510.40
2018-07-23T19:26:04.361Z,98524.56
2018-07-23T19:28:31.845Z,98523.05
2018-07-23T19:31:00.355Z,98527.27
2018-07-23T19:33:27.895Z,98529.11
2018-07-23T19:35:55.352Z,98537.58
2018-07-23T19:38:22.732Z,98535.63
2018-07-23T19:40:50.223Z,98536.19
2018-07-23T19:43:17.578Z,98537.66
2018-07-23T19:45:44.985Z,98543.45
2018-07-23T19:51:05.607Z,98554.03
2018-07-23T19:53:34.503Z,98557.80
2018-07-23T19:56:02.156Z,98556.60
2018-07-23T19:58:30.039Z,98564.19
2018-07-23T20:00:57.522Z,98562.72
2018-07-23T20:03:28.182Z,98565.10
2018-07-23T20:06:15.854Z,98558.74
2018-07-23T20:08:43.306Z,98568.86
2018-07-23T20:11:10.565Z,98568.34
2018-07-23T20:13:37.867Z,98571.68
2018-07-23T20:16:05.283Z,98569.19
2018-07-23T20:18:32.587Z,98573.83
2018-07-23T20:21:04.399Z,98571.19
2018-07-23T20:23:31.720Z,98570.34
2018-07-23T20:25:59.075Z,98571.41
2018-07-23T20:28:26.423Z,98566.75
2018-07-23T20:30:53.675Z,98571.53
2018-07-23T20:33:20.950Z,98579.62
2018-07-23T20:35:48.254Z,98575.83
2018-07-23T20:38:15.616Z,98580.91
2018-07-23T20:40:42.859Z,98573.84
2018-07-23T20:43:10.182Z,98578.42
2018-07-23T20:45:37.464Z,98577.89
2018-07-23T20:48:04.813Z,98579.71
2018-07-23T20:50:32.089Z,98579.34
2018-07-23T20:52:59.358Z,98574.30
2018-07-23T20:55:26.702Z,98578.44
2018-07-23T20:57:54.038Z,98571.97
2018-07-23T21:00:21.496Z,98577.52
2018-07-23T21:02:48.852Z,98577.13
2018-07-23T21:05:16.318Z,98582.34
2018-07-23T21:07:43.593Z,98582.45
2018-07-23T21:10:10.978Z,98579.19
2018-07-23T21:12:39.665Z,98577.29
2018-07-23T21:15:07.712Z,98580.34
2018-07-23T21:17:34.980Z,98579.12
2018-07-23T21:20:02.374Z,98578.06
2018-07-23T21:22:29.646Z,98577.98
2018-07-23T21:24:56.963Z,98579.10
2018-07-23T21:27:24.283Z,98583.47
2018-07-23T21:29:51.895Z,98583.27
2018-07-23T21:32:19.846Z,98581.36
2018-07-23T21:34:47.448Z,98582.59
2018-07-23T21:37:14.725Z,98583.34
2018-07-23T21:39:43.378Z,98589.98
2018-07-23T21:42:10.672Z,98593.98
2018-07-23T21:44:37.987Z,98585.41
2018-07-23T21:47:05.338Z,98584.24
2018-07-23T21:49:32.635Z,98589.95
2018-07-23T21:52:00.055Z,98587.12
2018-07-23T21:54:27.728Z,98582.30
2018-07-23T21:56:55.016Z,98583.91
2018-07-23T21:59:22.329Z,98591.91
2018-07-23T22:01:49.687Z,98590.58
2018-07-23T22:04:16.975Z,98593.61
2018-07-23T22:06:44.270Z,98595.30
2018-07-23T22:09:11.568Z,98591.01
2018-07-23T22:11:38.898Z,98592.63
2018-07-23T22:14:07.483Z,98589.46
2018-07-23T22:16:34.728Z,98591.20
2018-07-23T22:19:02.028Z,98593.07
2018-07-23T22:21:29.319Z,98598.94
2018-07-23T22:23:56.583Z,98601.13
2018-07-23T22:26:23.898Z,98599.55
2018-07-23T22:28:51.157Z,98607.16
2018-07-23T22:31:18.408Z,98613.41
2018-07-23T22:33:45.640Z,98611.86
2018-07-23T22:36:12.907Z,98607.70
2018-07-23T22:38:40.179Z,98611.56
2018-07-23T22:41:07.466Z,98605.95
2018-07-23T22:43:34.754Z,98607.41
2018-07-23T22:46:02.022Z,98610.36
2018-07-23T22:48:29.949Z,98615.74
2018-07-23T22:50:57.245Z,98610.41
2018-07-23T22:53:24.494Z,98606.27
2018-07-23T22:55:51.766Z,98606.66
2018-07-23T22:58:18.985Z,98602.98
2018-07-23T23:00:46.312Z,98601.72
2018-07-23T23:03:14.094Z,98601.90
2018-07-23T23:05:41.421Z,98599.19
2018-07-23T23:08:08.667Z,98602.70
2018-07-23T23:10:35.942Z,98592.91
2018-07-23T23:13:03.220Z,98604.13
2018-07-23T23:15:30.470Z,98608.73
2018-07-23T23:17:57.785Z,98601.52
2018-07-23T23:20:25.671Z,98599.70
2018-07-23T23:22:52.989Z,98593.14
2018-07-23T23:25:21.935Z,98595.80
2018-07-23T23:27:49.187Z,98598.03
2018-07-23T23:30:16.688Z,98600.08
2018-07-23T23:32:44.569Z,98599.31
2018-07-23T23:35:11.984Z,98595.05
2018-07-23T23:37:39.146Z,98594.84
2018-07-23T23:40:06.429Z,98590.16
2018-07-23T23:42:33.710Z,98596.79
2018-07-23T23:45:00.979Z,98593.89
2018-07-23T23:47:28.231Z,98587.62
2018-07-23T23:49:55.465Z,98586.61
2018-07-23T23:52:22.776Z,98579.45
2018-07-23T23:54:50.022Z,98576.45
2018-07-23T23:57:17.289Z,98578.82
2018-07-23T23:59:44.554Z,98578.16
